Time;durP1;ratioP1;P1;durP2;ratioP2;P2;SDS_P1;SDS_P2;PMS_P1;PMS_P2;Temp;Humidity;BMP_temperature;BMP_pressure;BME280_temperature;BME280_humidity;BME280_pressure;Samples;Min_cycle;Max_cycle;Signal;HPM_P1;HPM_P2
2023/01/16 00:00:42;;;;;;;15.70;10.75;;;3.10;99.90;;;;;;5052254;28;20477;-83
2023/01/16 00:03:08;;;;;;;13.20;10.55;;;3.10;99.90;;;;;;5070236;28;20024;-81
2023/01/16 00:05:34;;;;;;;17.00;10.75;;;3.00;99.90;;;;;;5070575;28;20032;-83
2023/01/16 00:07:59;;;;;;;15.00;9.75;;;3.00;99.90;;;;;;5070618;28;20036;-82
2023/01/16 00:10:25;;;;;;;15.32;10.63;;;3.00;99.90;;;;;;5070487;28;20048;-82
2023/01/16 00:12:51;;;;;;;17.63;10.45;;;2.90;99.90;;;;;;5070010;28;20028;-82
2023/01/16 00:15:16;;;;;;;17.45;11.55;;;2.90;99.90;;;;;;5052377;28;20069;-81
2023/01/16 00:17:42;;;;;;;17.20;11.05;;;2.90;99.90;;;;;;5070074;28;20033;-82
2023/01/16 00:20:08;;;;;;;15.10;9.57;;;2.90;99.90;;;;;;5069847;28;20047;-83
2023/01/16 00:22:34;;;;;;;20.27;11.43;;;2.80;99.90;;;;;;5069910;28;20032;-85
2023/01/16 00:24:59;;;;;;;17.80;10.98;;;2.70;99.90;;;;;;5069807;28;20133;-84
2023/01/16 00:27:25;;;;;;;19.08;9.98;;;2.70;99.90;;;;;;5069999;28;20036;-83
2023/01/16 00:29:50;;;;;;;17.75;10.05;;;2.70;99.90;;;;;;5052325;28;20033;-82
2023/01/16 00:32:16;;;;;;;16.05;10.27;;;2.60;99.90;;;;;;5052158;28;20045;-83
2023/01/16 00:34:42;;;;;;;17.45;10.43;;;2.60;99.90;;;;;;5054265;28;20382;-84
2023/01/16 00:37:07;;;;;;;15.30;9.95;;;2.50;99.90;;;;;;5055668;28;20031;-81
2023/01/16 00:39:33;;;;;;;18.10;10.07;;;2.40;99.90;;;;;;5073549;28;20522;-81
2023/01/16 00:41:59;;;;;;;16.83;10.85;;;2.40;99.90;;;;;;5073603;28;20042;-81
2023/01/16 00:44:24;;;;;;;22.63;12.50;;;2.40;99.90;;;;;;5073454;28;20375;-82
2023/01/16 00:46:50;;;;;;;21.02;12.43;;;2.30;99.90;;;;;;5055387;28;20422;-82
2023/01/16 00:49:16;;;;;;;16.83;10.27;;;2.30;99.90;;;;;;5073516;28;20099;-80
2023/01/16 00:51:41;;;;;;;19.05;10.45;;;2.30;99.90;;;;;;5055329;28;20048;-83
2023/01/16 00:54:07;;;;;;;20.08;11.38;;;2.20;99.90;;;;;;5073469;28;20032;-83
2023/01/16 00:56:33;;;;;;;21.05;11.55;;;2.20;99.90;;;;;;5073586;28;20466;-84
2023/01/16 00:58:58;;;;;;;21.48;11.15;;;2.20;99.90;;;;;;5073353;28;20024;-82
2023/01/16 01:01:24;;;;;;;22.08;11.25;;;2.10;99.90;;;;;;5055422;28;20041;-82
2023/01/16 01:03:49;;;;;;;20.13;12.13;;;2.10;99.90;;;;;;5055690;28;20462;-82
2023/01/16 01:06:15;;;;;;;20.73;11.98;;;2.10;99.90;;;;;;5073239;28;20032;-83
2023/01/16 01:08:41;;;;;;;16.13;11.13;;;2.10;99.90;;;;;;5073165;28;20551;-82
2023/01/16 01:11:08;;;;;;;17.50;12.43;;;2.00;99.90;;;;;;5039872;28;20021;-82
2023/01/16 01:13:34;;;;;;;19.45;11.93;;;2.00;99.90;;;;;;5033365;28;20013;-82
2023/01/16 01:16:00;;;;;;;21.30;13.02;;;2.00;99.90;;;;;;5033128;28;20094;-82
2023/01/16 01:18:25;;;;;;;18.83;10.95;;;2.00;99.90;;;;;;5015632;28;20116;-83
2023/01/16 01:20:51;;;;;;;23.50;13.73;;;1.90;99.90;;;;;;5032987;28;20394;-83
2023/01/16 01:23:16;;;;;;;26.20;12.73;;;1.90;99.90;;;;;;5032996;28;20029;-83
2023/01/16 01:25:42;;;;;;;24.05;13.43;;;1.90;99.90;;;;;;5015290;28;20029;-82
2023/01/16 01:28:08;;;;;;;22.52;13.65;;;1.90;99.90;;;;;;5033280;28;20467;-83
2023/01/16 01:30:33;;;;;;;20.08;12.90;;;1.80;99.90;;;;;;5033055;28;20432;-83
2023/01/16 01:32:59;;;;;;;22.23;12.82;;;1.80;99.90;;;;;;5032746;28;20428;-83
2023/01/16 01:35:24;;;;;;;26.50;14.55;;;1.70;99.90;;;;;;5032853;28;20483;-83
2023/01/16 01:37:50;;;;;;;35.95;20.63;;;1.70;99.90;;;;;;5015340;28;20025;-81
2023/01/16 01:40:16;;;;;;;58.95;30.08;;;1.70;99.90;;;;;;5014838;28;20025;-84
2023/01/16 01:42:42;;;;;;;97.13;44.58;;;1.70;99.90;;;;;;5014789;28;20497;-85
2023/01/16 01:45:26;;;;;;;77.30;34.83;;;1.60;99.90;;;;;;5032480;28;20176;-85
2023/01/16 01:48:01;;;;;;;83.45;40.50;;;1.60;99.90;;;;;;5014649;28;20033;-85
2023/01/16 01:50:46;;;;;;;61.35;29.35;;;1.60;99.90;;;;;;5014387;28;20064;-85
2023/01/16 01:53:19;;;;;;;46.85;23.35;;;1.50;99.90;;;;;;5032071;28;20089;-86
2023/01/16 01:55:47;;;;;;;51.47;26.23;;;1.50;99.90;;;;;;5014601;28;20029;-82
2023/01/16 01:58:20;;;;;;;29.60;16.50;;;1.50;99.90;;;;;;5032178;28;20017;-82
2023/01/16 02:00:46;;;;;;;90.38;22.52;;;1.40;99.90;;;;;;5035375;28;20029;-82
2023/01/16 02:03:17;;;;;;;66.95;17.98;;;1.40;99.90;;;;;;5034165;28;20047;-82
2023/01/16 02:05:46;;;;;;;59.13;17.92;;;1.40;99.90;;;;;;5052090;28;20467;-82
2023/01/16 02:08:17;;;;;;;39.13;17.20;;;1.40;99.90;;;;;;5051889;28;20382;-82
2023/01/16 02:10:48;;;;;;;65.18;26.55;;;1.40;99.90;;;;;;5051985;28;20021;-82
2023/01/16 02:13:13;;;;;;;58.63;18.60;;;1.40;99.90;;;;;;5034002;28;20428;-81
2023/01/16 02:19:15;;;;;;;105.85;23.02;;;1.40;99.90;;;;;;5033998;28;20021;-82
2023/01/16 02:21:26;;;;;;;33.80;15.73;;;1.40;99.90;;;;;;5051820;28;20125;-82
2023/01/16 02:24:28;;;;;;;49.35;18.55;;;1.40;99.90;;;;;;5051809;28;20367;-81
2023/01/16 02:27:20;;;;;;;62.53;19.00;;;1.40;99.90;;;;;;5051655;28;20033;-81
2023/01/16 02:30:08;;;;;;;102.30;21.38;;;1.40;99.90;;;;;;5051491;28;20032;-79
2023/01/16 02:32:45;;;;;;;43.97;17.40;;;1.40;99.90;;;;;;5050287;28;20148;-81
2023/01/16 02:35:39;;;;;;;45.40;15.27;;;1.40;99.90;;;;;;5051678;28;20032;-81
2023/01/16 02:38:33;;;;;;;76.03;19.35;;;1.40;99.90;;;;;;5014008;28;20024;-80
2023/01/16 02:41:43;;;;;;;53.35;15.82;;;1.30;99.90;;;;;;5013896;28;20114;-80
2023/01/16 02:44:24;;;;;;;73.82;20.55;;;1.30;99.90;;;;;;5031585;28;20029;-81
2023/01/16 02:47:12;;;;;;;192.02;34.72;;;1.30;99.90;;;;;;5013861;28;20064;-81
2023/01/16 02:49:49;;;;;;;110.97;25.92;;;1.40;99.90;;;;;;5013557;28;20460;-81
2023/01/16 02:52:19;;;;;;;107.57;24.70;;;1.40;99.90;;;;;;5013617;28;20080;-81
2023/01/16 02:55:06;;;;;;;43.20;20.27;;;1.40;99.90;;;;;;5031398;28;20022;-81
2023/01/16 02:57:36;;;;;;;50.17;21.88;;;1.40;99.90;;;;;;5030313;28;20467;-80
2023/01/16 03:00:05;;;;;;;45.90;20.25;;;1.40;99.90;;;;;;5031471;28;20082;-80
2023/01/16 03:02:31;;;;;;;55.25;20.80;;;1.40;99.90;;;;;;5013412;28;20389;-81
2023/01/16 03:04:56;;;;;;;53.50;22.17;;;1.40;99.90;;;;;;5013556;28;20029;-81
2023/01/16 03:07:29;;;;;;;88.18;21.45;;;1.40;99.90;;;;;;5031143;28;20056;-80
2023/01/16 03:10:32;;;;;;;41.50;19.08;;;1.40;99.90;;;;;;5013480;28;20034;-81
2023/01/16 03:13:26;;;;;;;66.10;25.80;;;1.40;99.90;;;;;;5031000;28;20030;-81
2023/01/16 03:15:58;;;;;;;106.25;25.98;;;1.40;99.90;;;;;;5031148;28;20471;-81
2023/01/16 03:18:33;;;;;;;62.72;18.08;;;1.40;99.90;;;;;;5013368;28;20017;-81
2023/01/16 03:21:08;;;;;;;131.23;24.85;;;1.40;99.90;;;;;;5031033;28;20037;-80
2023/01/16 03:23:37;;;;;;;84.07;21.92;;;1.40;99.90;;;;;;5013210;28;20026;-82
2023/01/16 03:26:28;;;;;;;50.88;17.83;;;1.40;99.90;;;;;;5013181;28;20026;-82
2023/01/16 03:29:26;;;;;;;77.82;19.92;;;1.40;99.90;;;;;;5030905;28;20033;-80
2023/01/16 03:32:17;;;;;;;75.38;20.27;;;1.40;99.90;;;;;;5030621;28;20064;-81
2023/01/16 03:35:05;;;;;;;46.75;17.63;;;1.40;99.90;;;;;;5028814;28;20116;-81
2023/01/16 03:37:40;;;;;;;70.65;18.95;;;1.40;99.90;;;;;;5030746;28;20017;-81
2023/01/16 03:40:09;;;;;;;103.10;23.65;;;1.40;99.90;;;;;;5030851;28;20048;-81
2023/01/16 03:42:41;;;;;;;75.03;19.27;;;1.40;99.90;;;;;;5012885;28;20049;-81
2023/01/16 03:45:13;;;;;;;97.63;18.50;;;1.40;99.90;;;;;;5013299;28;20104;-81
2023/01/16 03:47:46;;;;;;;28.35;14.07;;;1.40;99.90;;;;;;5012847;28;20014;-82
2023/01/16 03:50:13;;;;;;;43.30;16.40;;;1.40;99.90;;;;;;5030688;28;20102;-83
2023/01/16 03:52:45;;;;;;;37.33;14.38;;;1.40;99.90;;;;;;5030365;28;20130;-83
2023/01/16 03:55:26;;;;;;;43.63;17.75;;;1.40;99.90;;;;;;5030544;28;20481;-82
2023/01/16 03:58:02;;;;;;;35.75;16.75;;;1.50;99.90;;;;;;5030306;28;20471;-83
2023/01/16 04:00:37;;;;;;;40.55;18.95;;;1.50;99.90;;;;;;5012738;28;20022;-81
2023/01/16 04:03:12;;;;;;;81.35;35.47;;;1.50;99.90;;;;;;5012742;28;20025;-81
2023/01/16 04:06:11;;;;;;;57.97;23.48;;;1.50;99.90;;;;;;5012439;28;20067;-82
2023/01/16 04:08:40;;;;;;;44.40;20.77;;;1.50;99.90;;;;;;5029892;28;20021;-81
2023/01/16 04:11:07;;;;;;;38.53;18.85;;;1.60;99.90;;;;;;5012603;28;20497;-82
2023/01/16 04:13:36;;;;;;;38.30;17.17;;;1.60;99.90;;;;;;5012437;28;20124;-81
2023/01/16 04:16:06;;;;;;;38.22;18.80;;;1.60;99.90;;;;;;5030138;28;20021;-82
2023/01/16 04:18:34;;;;;;;35.22;18.25;;;1.60;99.90;;;;;;5012476;28;20021;-82
2023/01/16 04:21:03;;;;;;;42.40;20.83;;;1.70;99.90;;;;;;5012432;28;20028;-81
2023/01/16 04:23:28;;;;;;;39.97;20.45;;;1.70;99.90;;;;;;5030010;28;20386;-82
2023/01/16 04:25:54;;;;;;;37.45;19.58;;;1.70;99.90;;;;;;5012296;28;20029;-82
2023/01/16 04:28:19;;;;;;;33.33;18.83;;;1.70;99.90;;;;;;5029962;28;20026;-82
2023/01/16 04:30:45;;;;;;;40.05;18.90;;;1.70;99.90;;;;;;5029838;28;20040;-82
2023/01/16 04:33:11;;;;;;;38.85;20.42;;;1.70;99.90;;;;;;5012083;28;20052;-84
2023/01/16 04:35:36;;;;;;;34.53;19.38;;;1.70;99.90;;;;;;5012447;28;20041;-82
2023/01/16 04:38:02;;;;;;;30.67;18.05;;;1.70;99.90;;;;;;5029793;28;20022;-83
2023/01/16 04:40:28;;;;;;;31.13;18.17;;;1.70;99.90;;;;;;5012185;28;20022;-83
2023/01/16 04:42:54;;;;;;;35.88;18.38;;;1.70;99.90;;;;;;5029823;28;20515;-83
2023/01/16 04:45:21;;;;;;;31.10;17.00;;;1.60;99.90;;;;;;5029785;28;20022;-83
2023/01/16 04:47:47;;;;;;;30.38;16.70;;;1.60;99.90;;;;;;5012259;28;20022;-83
2023/01/16 04:50:14;;;;;;;30.95;16.25;;;1.60;99.90;;;;;;5029655;28;20028;-83
2023/01/16 04:52:40;;;;;;;29.45;15.75;;;1.60;99.90;;;;;;5011975;28;20161;-83
2023/01/16 04:55:06;;;;;;;22.65;14.05;;;1.60;99.90;;;;;;5011765;28;20017;-83
2023/01/16 04:57:32;;;;;;;28.70;15.50;;;1.60;99.90;;;;;;5011798;28;20025;-82
2023/01/16 04:59:58;;;;;;;27.35;15.95;;;1.60;99.90;;;;;;5012114;28;20467;-83
2023/01/16 05:02:23;;;;;;;27.52;15.13;;;1.60;99.90;;;;;;5011766;28;20063;-83
2023/01/16 05:04:49;;;;;;;27.83;16.17;;;1.50;99.90;;;;;;5011834;28;20022;-83
2023/01/16 05:07:14;;;;;;;26.10;15.35;;;1.60;99.90;;;;;;5012064;28;20091;-82
2023/01/16 05:09:40;;;;;;;21.75;13.27;;;1.50;99.90;;;;;;5029451;28;20021;-83
2023/01/16 05:12:06;;;;;;;30.88;18.92;;;1.50;99.90;;;;;;5011902;28;20063;-82
2023/01/16 05:14:31;;;;;;;23.75;14.93;;;1.50;99.90;;;;;;5011982;28;20458;-83
2023/01/16 05:16:57;;;;;;;26.08;15.90;;;1.50;99.90;;;;;;5011712;28;20026;-83
2023/01/16 05:19:22;;;;;;;21.25;14.75;;;1.50;99.90;;;;;;5011791;28;20028;-83
2023/01/16 05:21:48;;;;;;;28.45;17.85;;;1.50;99.90;;;;;;5031062;28;20029;-81
2023/01/16 05:24:13;;;;;;;30.08;17.50;;;1.40;99.90;;;;;;5032866;28;20022;-81
2023/01/16 05:26:39;;;;;;;28.63;17.67;;;1.40;99.90;;;;;;5015040;28;20021;-80
2023/01/16 05:29:05;;;;;;;25.52;15.73;;;1.40;99.90;;;;;;5032653;28;20078;-81
2023/01/16 05:31:30;;;;;;;24.58;15.60;;;1.40;99.90;;;;;;5014826;28;20120;-80
2023/01/16 05:33:56;;;;;;;24.25;14.20;;;1.40;99.90;;;;;;5032479;28;20116;-81
2023/01/16 05:36:21;;;;;;;20.92;14.20;;;1.40;99.90;;;;;;5032406;28;20025;-81
2023/01/16 05:38:47;;;;;;;22.45;14.57;;;1.40;99.90;;;;;;5032483;28;20109;-81
2023/01/16 05:41:13;;;;;;;25.08;13.93;;;1.40;99.90;;;;;;5014784;28;20067;-81
2023/01/16 05:43:38;;;;;;;24.92;15.20;;;1.30;99.90;;;;;;5032492;28;20022;-81
2023/01/16 05:46:04;;;;;;;26.52;15.20;;;1.30;99.90;;;;;;5032652;28;20030;-81
2023/01/16 05:48:35;;;;;;;24.98;15.07;;;1.30;99.90;;;;;;5032357;28;20031;-80
2023/01/16 05:51:01;;;;;;;22.75;15.35;;;1.30;99.90;;;;;;5014782;28;20112;-81
2023/01/16 05:53:27;;;;;;;22.95;14.35;;;1.30;99.90;;;;;;5014472;28;20457;-83
2023/01/16 05:55:53;;;;;;;22.23;13.55;;;1.30;99.90;;;;;;5032405;28;20474;-82
2023/01/16 05:58:19;;;;;;;20.40;13.32;;;1.30;99.90;;;;;;5031814;28;20032;-81
2023/01/16 06:00:45;;;;;;;22.20;14.48;;;1.30;99.90;;;;;;5013767;28;20026;-82
2023/01/16 06:03:10;;;;;;;26.02;13.80;;;1.20;99.90;;;;;;5030956;28;20025;-83
2023/01/16 06:05:36;;;;;;;21.30;13.25;;;1.20;99.90;;;;;;5032158;28;20021;-81
2023/01/16 06:08:02;;;;;;;19.58;11.80;;;1.20;99.90;;;;;;5032129;28;20025;-82
2023/01/16 06:10:28;;;;;;;18.45;10.93;;;1.20;99.90;;;;;;5031792;28;20060;-81
2023/01/16 06:12:54;;;;;;;19.05;11.88;;;1.20;99.90;;;;;;5031462;28;20061;-82
2023/01/16 06:15:20;;;;;;;20.90;12.40;;;1.20;99.90;;;;;;5031714;28;20100;-82
2023/01/16 06:17:46;;;;;;;23.05;12.93;;;1.10;99.90;;;;;;5100004;28;20029;-82
2023/01/16 06:20:12;;;;;;;32.72;19.77;;;1.10;99.90;;;;;;5033733;28;20049;-82
2023/01/16 06:22:37;;;;;;;31.77;18.63;;;1.10;99.90;;;;;;5013488;28;20022;-82
2023/01/16 06:25:04;;;;;;;31.05;16.02;;;1.10;99.90;;;;;;5031493;28;20018;-82
2023/01/16 06:27:31;;;;;;;18.70;11.55;;;1.10;99.90;;;;;;5031480;28;20498;-82
2023/01/16 06:29:57;;;;;;;17.95;10.27;;;1.10;99.90;;;;;;5014419;28;20428;-83
2023/01/16 06:32:22;;;;;;;13.70;9.95;;;1.10;99.90;;;;;;5010160;28;20050;-82
2023/01/16 06:34:48;;;;;;;19.45;11.45;;;1.00;99.90;;;;;;5011023;28;20030;-82
2023/01/16 06:37:13;;;;;;;24.63;14.52;;;1.10;99.90;;;;;;5010380;28;20109;-82
2023/01/16 06:39:39;;;;;;;23.70;13.73;;;1.10;99.90;;;;;;5011870;28;20063;-82
2023/01/16 06:42:05;;;;;;;28.80;16.20;;;1.10;99.90;;;;;;5026708;28;20022;-83
2023/01/16 06:44:31;;;;;;;29.20;16.17;;;1.10;99.90;;;;;;5010978;28;20049;-82
2023/01/16 06:46:57;;;;;;;25.55;13.25;;;1.10;99.90;;;;;;5026200;28;20478;-82
2023/01/16 06:49:23;;;;;;;26.35;15.73;;;1.10;99.90;;;;;;5030799;28;20022;-82
2023/01/16 06:51:48;;;;;;;24.38;14.55;;;1.10;99.90;;;;;;5029362;28;20491;-83
2023/01/16 06:54:14;;;;;;;30.13;16.77;;;1.10;99.90;;;;;;5030189;28;20116;-82
2023/01/16 06:56:40;;;;;;;59.42;26.55;;;1.10;99.90;;;;;;5029980;28;20064;-82
2023/01/16 06:59:05;;;;;;;74.18;33.88;;;1.10;99.90;;;;;;5031397;28;20044;-82
2023/01/16 07:01:31;;;;;;;75.90;36.45;;;1.10;99.90;;;;;;5030144;28;20100;-82
2023/01/16 07:03:57;;;;;;;66.78;33.20;;;1.10;99.90;;;;;;5029046;28;20489;-82
2023/01/16 07:06:23;;;;;;;36.10;20.00;;;1.20;99.90;;;;;;5029178;28;20049;-82
2023/01/16 07:08:51;;;;;;;36.85;19.55;;;1.20;99.90;;;;;;5028208;28;20079;-83
2023/01/16 07:11:18;;;;;;;40.95;20.92;;;1.20;99.90;;;;;;5028140;28;20028;-83
2023/01/16 07:13:44;;;;;;;34.72;19.88;;;1.20;99.90;;;;;;5027482;28;20034;-84
2023/01/16 07:24:31;;;;;;;123.50;52.80;;;1.30;99.90;;;;;;5010688;28;20394;-84
2023/01/16 07:27:02;;;;;;;95.38;45.60;;;1.30;99.90;;;;;;5010490;28;20061;-84
2023/01/16 07:29:31;;;;;;;55.80;26.80;;;1.30;99.90;;;;;;5009236;28;20034;-83
2023/01/16 07:31:58;;;;;;;52.97;25.15;;;1.30;99.90;;;;;;5018838;28;20053;-83
2023/01/16 07:34:23;;;;;;;76.13;33.88;;;1.40;99.90;;;;;;5028870;28;20485;-82
2023/01/16 07:36:49;;;;;;;78.28;39.75;;;1.40;99.90;;;;;;5027365;28;20026;-82
2023/01/16 07:39:14;;;;;;;102.30;47.97;;;1.40;99.90;;;;;;5028700;28;20181;-82
2023/01/16 07:41:40;;;;;;;149.70;72.70;;;1.40;99.90;;;;;;5027437;28;20017;-83
2023/01/16 07:44:06;;;;;;;118.32;57.17;;;1.40;99.90;;;;;;5027563;28;20029;-83
2023/01/16 07:46:32;;;;;;;98.43;49.53;;;1.50;99.90;;;;;;5030607;28;20053;-83
2023/01/16 07:48:58;;;;;;;75.82;39.55;;;1.50;99.90;;;;;;5030559;28;20455;-84
2023/01/16 07:51:24;;;;;;;75.65;40.38;;;1.50;99.90;;;;;;5029180;28;20018;-84
2023/01/16 07:53:50;;;;;;;81.22;45.85;;;1.50;99.90;;;;;;5030558;28;20029;-83
2023/01/16 07:56:15;;;;;;;66.40;38.95;;;1.60;99.90;;;;;;5030548;28;20483;-83
2023/01/16 07:58:42;;;;;;;86.07;48.97;;;1.60;99.90;;;;;;5030368;28;20365;-82
2023/01/16 08:01:09;;;;;;;69.03;37.88;;;1.60;99.90;;;;;;5029136;28;20364;-80
2023/01/16 08:03:34;;;;;;;82.32;43.85;;;1.70;99.90;;;;;;5030408;28;20025;-80
2023/01/16 08:06:02;;;;;;;78.97;42.92;;;1.70;99.90;;;;;;5029082;28;20058;-80
2023/01/16 08:08:28;;;;;;;41.58;25.33;;;1.80;99.90;;;;;;5030316;28;20057;-80
2023/01/16 08:10:59;;;;;;;24.23;14.43;;;1.90;99.90;;;;;;5028977;28;20606;-80
2023/01/16 08:13:26;;;;;;;20.98;13.48;;;1.90;99.90;;;;;;5030222;28;20033;-80
2023/01/16 08:15:52;;;;;;;27.45;15.77;;;2.00;99.90;;;;;;5030232;28;20033;-80
2023/01/16 08:18:19;;;;;;;38.58;26.77;;;2.00;99.90;;;;;;5028903;28;20028;-80
2023/01/16 08:20:46;;;;;;;131.15;69.20;;;2.10;99.90;;;;;;5030059;28;20383;-79
2023/01/16 08:23:12;;;;;;;67.63;34.63;;;2.10;99.90;;;;;;5030119;28;20025;-79
2023/01/16 08:25:37;;;;;;;31.15;16.60;;;2.20;99.90;;;;;;5030110;28;20363;-80
2023/01/16 08:28:04;;;;;;;46.35;21.33;;;2.30;99.90;;;;;;5028156;28;20026;-80
2023/01/16 08:30:29;;;;;;;57.25;26.38;;;2.30;99.90;;;;;;5053802;28;20428;-80
2023/01/16 08:33:00;;;;;;;82.65;35.33;;;2.30;99.90;;;;;;5115893;27;20121;-80
2023/01/16 08:35:25;;;;;;;32.50;14.65;;;2.40;99.90;;;;;;5136062;27;20022;-81
2023/01/16 08:37:51;;;;;;;25.38;11.57;;;2.40;99.90;;;;;;5154639;27;20034;-81
2023/01/16 08:40:18;;;;;;;17.67;11.35;;;2.50;99.90;;;;;;5136085;27;20027;-81
2023/01/16 08:53:46;;;;;;;14.63;8.57;;;2.60;99.90;;;;;;5049502;28;20414;-81
2023/01/16 08:56:12;;;;;;;11.90;7.93;;;2.70;99.90;;;;;;5119035;27;20021;-81
2023/01/16 08:58:37;;;;;;;14.52;9.43;;;2.80;99.90;;;;;;5111281;27;20071;-81
2023/01/16 09:01:03;;;;;;;11.00;7.30;;;2.80;99.90;;;;;;5092584;27;20483;-81
2023/01/16 09:03:28;;;;;;;13.68;7.40;;;2.90;99.90;;;;;;5145127;27;20092;-81
2023/01/16 09:05:54;;;;;;;13.15;7.40;;;2.90;99.90;;;;;;5158196;27;20061;-81
2023/01/16 09:08:20;;;;;;;12.77;8.13;;;2.90;99.90;;;;;;5139764;27;20383;-81
2023/01/16 09:13:48;;;;;;;11.90;8.45;;;3.00;99.90;;;;;;5109628;27;20050;-82
2023/01/16 09:13:48;;;;;;;9.57;6.47;;;3.00;99.90;;;;;;5056015;27;20516;-82
2023/01/16 09:16:16;;;;;;;11.63;7.00;;;3.10;99.90;;;;;;5034120;28;20466;-81
2023/01/16 09:18:41;;;;;;;11.30;6.88;;;3.10;99.90;;;;;;5053325;27;20028;-81
2023/01/16 09:21:07;;;;;;;11.07;6.38;;;3.10;99.90;;;;;;5035327;28;20025;-81
2023/01/16 09:23:32;;;;;;;8.30;6.07;;;3.10;99.90;;;;;;5035127;28;20037;-82
2023/01/16 09:25:58;;;;;;;8.05;6.40;;;3.10;99.90;;;;;;5053078;28;20099;-82
2023/01/16 09:28:23;;;;;;;8.32;6.38;;;3.10;99.90;;;;;;5053290;28;20021;-82
2023/01/16 09:30:51;;;;;;;9.40;6.40;;;3.20;99.90;;;;;;5052837;28;20124;-81
2023/01/16 09:33:16;;;;;;;8.45;5.65;;;3.10;99.90;;;;;;5050745;28;20405;-81
2023/01/16 09:35:42;;;;;;;9.73;5.95;;;3.10;99.90;;;;;;5032303;28;20025;-81
2023/01/16 09:38:08;;;;;;;13.52;7.13;;;3.20;99.90;;;;;;5050703;28;20056;-81
2023/01/16 09:40:34;;;;;;;17.05;10.35;;;3.20;99.90;;;;;;5032863;28;20061;-81
2023/01/16 09:43:38;;;;;;;27.55;16.13;;;3.30;99.90;;;;;;5051271;28;20470;-81
2023/01/16 09:46:16;;;;;;;10.20;6.45;;;3.30;99.90;;;;;;5033622;28;20029;-81
2023/01/16 09:48:55;;;;;;;12.55;7.68;;;3.30;99.90;;;;;;5035363;28;20021;-81
2023/01/16 09:51:31;;;;;;;10.80;6.90;;;3.30;99.90;;;;;;5052908;28;20053;-81
2023/01/16 09:59:54;;;;;;;10.95;6.50;;;3.40;99.90;;;;;;5052784;28;20076;-82
2023/01/16 10:02:33;;;;;;;8.00;6.60;;;3.50;99.90;;;;;;5033601;28;20025;-82
2023/01/16 10:04:59;;;;;;;8.13;6.43;;;3.50;99.90;;;;;;5052206;28;20017;-81
2023/01/16 10:07:40;;;;;;;8.85;6.28;;;3.50;99.90;;;;;;5051967;28;20021;-82
2023/01/16 10:10:35;;;;;;;8.50;5.60;;;3.50;99.90;;;;;;5034622;28;20524;-81
2023/01/16 10:13:28;;;;;;;8.85;6.45;;;3.60;99.90;;;;;;5034727;28;20456;-82
2023/01/16 10:16:12;;;;;;;;;;;3.60;99.90;;;;;;5052761;28;20078;-82
2023/01/16 10:18:50;;;;;;;9.13;5.40;;;3.70;99.90;;;;;;5034333;28;19909;-82
2023/01/16 10:21:23;;;;;;;7.78;6.05;;;3.70;99.90;;;;;;5034424;28;20042;-81
2023/01/16 10:23:58;;;;;;;7.25;5.07;;;3.80;99.90;;;;;;5052183;28;20037;-82
2023/01/16 10:26:39;;;;;;;10.23;5.80;;;3.80;99.90;;;;;;5052139;28;20021;-82
2023/01/16 10:29:28;;;;;;;7.65;5.65;;;3.80;99.90;;;;;;5034402;28;20553;-82
2023/01/16 10:32:19;;;;;;;6.95;4.68;;;3.90;99.90;;;;;;5051957;28;20048;-82
2023/01/16 10:35:03;;;;;;;8.07;5.28;;;3.90;99.90;;;;;;5052011;28;20025;-82
2023/01/16 10:37:29;;;;;;;9.77;5.40;;;4.00;99.90;;;;;;5034000;28;20505;-82
2023/01/16 10:39:56;;;;;;;7.57;6.05;;;4.00;99.90;;;;;;5034002;28;20029;-82
2023/01/16 10:51:00;;;;;;;8.05;6.00;;;4.10;99.90;;;;;;5052045;28;20043;-82
2023/01/16 10:53:26;;;;;;;14.68;6.75;;;4.10;99.90;;;;;;5033682;28;20044;-82
2023/01/16 10:55:53;;;;;;;8.10;4.88;;;4.10;99.90;;;;;;5051493;28;20025;-82
2023/01/16 10:58:28;;;;;;;8.95;5.07;;;4.10;99.90;;;;;;5033925;28;20059;-81
2023/01/16 11:01:17;;;;;;;7.88;4.90;;;4.10;99.90;;;;;;5033707;28;20127;-82
2023/01/16 11:03:55;;;;;;;5.15;4.35;;;4.10;99.90;;;;;;5033159;28;20041;-82
2023/01/16 11:06:30;;;;;;;4.25;3.53;;;4.10;99.90;;;;;;5051468;28;20077;-82
2023/01/16 11:09:02;;;;;;;5.28;3.92;;;4.10;99.90;;;;;;5051602;28;20029;-82
2023/01/16 11:20:32;;;;;;;6.07;3.60;;;4.30;99.90;;;;;;5050450;28;20078;-82
2023/01/16 11:23:05;;;;;;;6.00;4.82;;;4.40;99.90;;;;;;5040555;27;20021;-82
2023/01/16 11:25:31;;;;;;;6.95;3.80;;;4.50;99.90;;;;;;5077778;27;20028;-82
2023/01/16 11:28:02;;;;;;;5.28;3.42;;;4.60;99.90;;;;;;5077586;27;20452;-82
2023/01/16 11:30:42;;;;;;;5.32;4.43;;;4.70;99.90;;;;;;5032244;28;20104;-82
2023/01/16 11:33:18;;;;;;;6.47;3.65;;;4.80;99.90;;;;;;5031661;28;20052;-82
2023/01/16 11:35:53;;;;;;;3.25;2.80;;;4.80;99.90;;;;;;5031463;28;20029;-84
2023/01/16 11:38:19;;;;;;;3.88;2.50;;;4.90;99.90;;;;;;5081506;27;20158;-83
2023/01/16 11:40:47;;;;;;;3.75;2.53;;;5.00;99.90;;;;;;5088503;27;20110;-83
2023/01/16 11:46:21;;;;;;;4.28;1.90;;;5.10;99.90;;;;;;5155488;27;20038;-83
2023/01/16 11:48:53;;;;;;;2.13;2.03;;;5.10;97.90;;;;;;5136875;27;20026;-83
2023/01/16 11:51:23;;;;;;;4.70;2.53;;;5.10;95.90;;;;;;5137234;27;20050;-83
2023/01/16 11:53:50;;;;;;;3.47;2.65;;;5.20;96.70;;;;;;5136307;27;20448;-82
2023/01/16 11:56:43;;;;;;;2.85;1.80;;;5.20;98.20;;;;;;5134922;27;20071;-83
2023/01/16 11:59:24;;;;;;;4.23;1.90;;;5.30;97.30;;;;;;5136544;27;20040;-83
2023/01/16 12:02:19;;;;;;;3.38;1.92;;;5.30;93.40;;;;;;5137091;27;20355;-83
2023/01/16 12:08:21;;;;;;;4.13;2.42;;;5.30;93.70;;;;;;5155754;27;20041;-83
2023/01/16 12:11:10;;;;;;;4.90;2.58;;;5.40;96.80;;;;;;5136952;27;20022;-83
2023/01/16 12:14:18;;;;;;;3.67;2.53;;;5.30;99.40;;;;;;5155493;27;20030;-83
2023/01/16 12:17:09;;;;;;;2.40;2.20;;;5.40;99.90;;;;;;5137032;27;20117;-83
2023/01/16 12:19:59;;;;;;;3.60;2.80;;;5.20;99.90;;;;;;5136719;27;20405;-83
2023/01/16 12:22:43;;;;;;;4.38;2.90;;;5.20;99.90;;;;;;5136860;27;20030;-83
2023/01/16 12:25:24;;;;;;;3.72;3.25;;;5.20;99.90;;;;;;5067574;27;20021;-82
2023/01/16 12:28:25;;;;;;;3.55;2.88;;;5.20;99.90;;;;;;5073686;27;20029;-83
2023/01/16 12:34:25;;;;;;;15.80;10.00;;;5.20;99.90;;;;;;5103744;27;20110;-83
2023/01/16 12:37:09;;;;;;;71.40;33.95;;;5.10;99.90;;;;;;5106722;27;20086;-83
2023/01/16 12:39:48;;;;;;;54.75;24.77;;;5.10;99.90;;;;;;5025153;28;20026;-84
2023/01/16 12:45:58;;;;;;;24.42;15.90;;;5.10;99.90;;;;;;5100087;27;20610;-83
2023/01/16 12:48:57;;;;;;;21.60;13.77;;;5.10;99.90;;;;;;5104423;27;20587;-83
2023/01/16 12:51:32;;;;;;;7.43;4.72;;;5.10;99.90;;;;;;5102677;27;20033;-83
2023/01/16 12:54:22;;;;;;;9.15;5.45;;;5.10;99.90;;;;;;5100766;27;20045;-82
2023/01/16 12:57:09;;;;;;;7.68;5.65;;;5.10;99.90;;;;;;5077541;27;20036;-84
2023/01/16 12:59:41;;;;;;;14.02;9.98;;;5.10;99.90;;;;;;5081672;27;20027;-82
2023/01/16 13:02:28;;;;;;;12.55;8.60;;;5.00;99.90;;;;;;5073527;27;20027;-83
2023/01/16 13:05:04;;;;;;;35.97;17.90;;;5.00;99.90;;;;;;5076294;27;20029;-82
2023/01/16 13:07:36;;;;;;;23.40;12.70;;;5.00;99.90;;;;;;5092078;27;20405;-82
2023/01/16 13:13:25;;;;;;;11.18;7.80;;;4.90;99.90;;;;;;5072093;27;20578;-83
2023/01/16 13:16:15;;;;;;;10.25;6.90;;;4.80;99.90;;;;;;5073891;27;20142;-83
2023/01/16 13:18:50;;;;;;;12.25;7.25;;;4.60;99.90;;;;;;5103475;27;20029;-83
2023/01/16 13:21:24;;;;;;;11.80;8.23;;;4.50;99.90;;;;;;5081632;27;20033;-81
2023/01/16 13:24:00;;;;;;;15.85;9.70;;;4.40;99.90;;;;;;5153418;27;20023;-82
2023/01/16 13:26:27;;;;;;;14.82;9.35;;;4.40;99.90;;;;;;5105449;27;20031;-83
2023/01/16 13:29:09;;;;;;;16.88;10.73;;;4.30;99.90;;;;;;5081024;27;20021;-84
2023/01/16 13:31:54;;;;;;;12.37;8.53;;;4.30;99.90;;;;;;5085428;27;20541;-84
2023/01/16 13:34:29;;;;;;;15.60;9.57;;;4.10;99.90;;;;;;5116293;28;20077;-83
2023/01/16 13:37:07;;;;;;;14.48;10.05;;;4.10;99.90;;;;;;5092059;27;20035;-82
2023/01/16 13:40:01;;;;;;;15.90;9.88;;;4.10;99.90;;;;;;5048804;28;20025;-83
2023/01/16 13:42:28;;;;;;;20.15;11.93;;;4.00;99.90;;;;;;5034693;28;20033;-86
2023/01/16 13:47:52;;;;;;;22.73;13.43;;;3.80;99.90;;;;;;5043820;27;20044;-85
2023/01/16 13:50:25;;;;;;;25.25;14.65;;;3.80;99.90;;;;;;5155678;27;20042;-85
2023/01/16 13:52:55;;;;;;;22.33;14.07;;;3.70;99.90;;;;;;5108106;27;20046;-86
2023/01/16 13:55:34;;;;;;;26.40;15.68;;;3.60;99.90;;;;;;5103855;27;20029;-85
2023/01/16 13:58:20;;;;;;;22.70;13.45;;;3.60;99.90;;;;;;5084343;27;20116;-85
2023/01/16 14:00:54;;;;;;;20.05;12.48;;;3.50;99.90;;;;;;5088108;27;20115;-85
2023/01/16 14:03:26;;;;;;;26.75;15.73;;;3.50;99.90;;;;;;5100596;27;20530;-85
2023/01/16 14:06:13;;;;;;;20.67;15.32;;;3.50;99.90;;;;;;5098497;27;20036;-84
2023/01/16 14:09:06;;;;;;;18.77;13.55;;;3.40;99.90;;;;;;5099532;27;20025;-84